KMGJ/MGJ METAR and TAF weather

Enter ICAO airport designator
Station Type Date Time Source
KMGJ METAR 2019/02/21 15:42 UTC NOAA

KMGJ 211542Z AUTO 21012KT 10SM SCT026 03/01 A2990 RMK AO2 T00280011


Station Type Date Time Source
KMGJ Decoded METAR 2019/02/21 15:42 UTC NOAA

MONTGOMERY ORANGE CO AIRPORT, NY, United States (KMGJ) 41-31N 074-16W 108M
Feb 21, 2019 - 10:42 AM EST / 2019.02.21 1542 UTC
Wind: from the SSW (210 degrees) at 14 MPH (12 KT):0
Visibility: 10 mile(s):0
Sky conditions: partly cloudy
Temperature: 37.0 F (2.8 C)
Dew Point: 34.0 F (1.1 C)
Relative Humidity: 88%
Pressure (altimeter): 29.9 in. Hg (1012 hPa)
ob: KMGJ 211542Z AUTO 21012KT 10SM SCT026 03/01 A2990 RMK AO2 T00280011
cycle: 15

Station Type Date Time Source
KMGJ TAF UTC NOAA

Error!


Example: see airport list